createdAt,value
2022-08-18T00:00:18.353Z,22.36
2022-08-18T00:01:13.407Z,22.25
2022-08-18T00:02:12.118Z,22.23
2022-08-18T00:03:20.250Z,22.22
2022-08-18T00:04:30.704Z,22.28
2022-08-18T00:05:11.988Z,22.26
2022-08-18T00:06:12.020Z,22.28
2022-08-18T00:07:11.929Z,22.11
2022-08-18T00:08:11.913Z,22.11
2022-08-18T00:09:11.902Z,22.15
2022-08-18T00:10:18.211Z,22.11
2022-08-18T00:11:11.900Z,22.15
2022-08-18T00:12:11.821Z,22.10
2022-08-18T00:13:11.784Z,21.99
2022-08-18T00:14:11.760Z,22.02
2022-08-18T00:15:11.759Z,22.06
2022-08-18T00:16:11.718Z,21.93
2022-08-18T00:17:11.748Z,21.92
2022-08-18T00:18:11.657Z,21.92
2022-08-18T00:19:11.639Z,21.83
2022-08-18T00:20:11.637Z,21.75
2022-08-18T00:21:11.598Z,21.88
2022-08-18T00:22:15.251Z,21.77
2022-08-18T00:23:11.602Z,21.72
2022-08-18T00:24:11.542Z,21.72
2022-08-18T00:25:11.478Z,21.66
2022-08-18T00:26:11.456Z,21.60
2022-08-18T00:27:11.521Z,21.64
2022-08-18T00:28:11.441Z,21.60
2022-08-18T00:29:11.400Z,21.62
2022-08-18T00:30:11.342Z,21.57
2022-08-18T00:31:11.321Z,21.62
2022-08-18T00:32:11.301Z,21.50
2022-08-18T00:33:11.357Z,21.58
2022-08-18T00:34:11.266Z,21.58
2022-08-18T00:35:11.210Z,21.61
2022-08-18T00:36:11.187Z,21.57
2022-08-18T00:37:11.168Z,21.43
2022-08-18T00:38:24.518Z,21.43
2022-08-18T00:39:11.121Z,21.51
2022-08-18T00:40:11.125Z,21.46
2022-08-18T00:41:11.098Z,21.40
2022-08-18T00:42:11.077Z,21.36
2022-08-18T00:43:11.017Z,21.32
2022-08-18T00:44:11.042Z,21.30
2022-08-18T00:45:10.972Z,21.30
2022-08-18T00:46:10.971Z,21.22
2022-08-18T00:47:10.899Z,21.17
2022-08-18T00:48:10.929Z,21.14
2022-08-18T00:49:10.944Z,21.20
2022-08-18T00:50:14.809Z,21.09
2022-08-18T00:51:10.850Z,21.05
2022-08-18T00:52:11.715Z,20.97
2022-08-18T00:53:10.770Z,20.92
2022-08-18T00:54:10.720Z,20.95
2022-08-18T00:55:10.763Z,20.92
2022-08-18T00:56:11.406Z,20.84
2022-08-18T00:57:10.670Z,20.87
2022-08-18T00:58:10.631Z,20.78
2022-08-18T00:59:10.607Z,20.93
2022-08-18T01:00:11.850Z,20.81
2022-08-18T01:01:10.634Z,20.78
2022-08-18T01:02:10.519Z,20.84
2022-08-18T01:03:10.488Z,20.75
2022-08-18T01:04:10.453Z,20.69
2022-08-18T01:05:10.454Z,20.72
2022-08-18T01:06:10.582Z,20.66
2022-08-18T01:07:10.417Z,20.67
2022-08-18T01:08:10.361Z,20.66
2022-08-18T01:09:10.365Z,20.60
2022-08-18T01:10:10.297Z,20.58
2022-08-18T01:11:10.285Z,20.44
2022-08-18T01:12:44.522Z,20.59
2022-08-18T01:13:10.255Z,20.60
2022-08-18T01:14:10.246Z,20.52
2022-08-18T01:15:10.175Z,20.48
2022-08-18T01:16:10.146Z,20.47
2022-08-18T01:17:10.117Z,20.37
2022-08-18T01:18:10.175Z,20.41
2022-08-18T01:19:10.250Z,20.29
2022-08-18T01:20:10.031Z,20.26
2022-08-18T01:21:10.014Z,20.31
2022-08-18T01:22:09.998Z,20.18
2022-08-18T01:23:09.945Z,20.25
2022-08-18T01:24:10.026Z,20.24
2022-08-18T01:25:09.919Z,20.25
2022-08-18T01:26:09.871Z,20.18
2022-08-18T01:27:09.871Z,20.14
2022-08-18T01:28:09.826Z,20.09
2022-08-18T01:29:09.874Z,20.14
2022-08-18T01:30:09.804Z,20.10
2022-08-18T01:31:09.751Z,20.07
2022-08-18T01:32:09.732Z,20.10
2022-08-18T01:33:09.706Z,20.13
2022-08-18T01:34:09.788Z,20.06
2022-08-18T01:35:09.705Z,20.04
2022-08-18T01:36:09.628Z,20.02
2022-08-18T01:37:09.596Z,20.04
2022-08-18T01:38:09.559Z,20.04
2022-08-18T01:39:09.549Z,19.99
2022-08-18T01:41:25.165Z,19.92
2022-08-18T01:41:27.176Z,19.95
2022-08-18T01:42:09.548Z,19.95
2022-08-18T01:43:09.429Z,19.92
2022-08-18T01:44:09.407Z,19.92
2022-08-18T01:45:09.379Z,19.95
2022-08-18T01:46:09.465Z,19.95
2022-08-18T01:47:09.326Z,20.02
2022-08-18T01:48:09.288Z,20.10
2022-08-18T01:49:09.259Z,20.06
2022-08-18T01:50:09.248Z,20.09
2022-08-18T01:51:09.205Z,20.06
2022-08-18T01:52:09.253Z,20.04
2022-08-18T01:53:09.165Z,20.00
2022-08-18T01:54:09.141Z,20.04
2022-08-18T01:55:09.111Z,20.00
2022-08-18T01:56:09.077Z,20.06
2022-08-18T01:57:09.140Z,19.95
2022-08-18T01:58:09.024Z,20.03
2022-08-18T01:59:09.019Z,19.99
2022-08-18T02:00:09.852Z,20.06
2022-08-18T02:01:08.950Z,19.99
2022-08-18T02:02:09.015Z,19.89
2022-08-18T02:03:08.990Z,19.95
2022-08-18T02:04:33.748Z,19.99
2022-08-18T02:05:08.826Z,19.95
2022-08-18T02:06:08.811Z,19.91
2022-08-18T02:07:08.787Z,19.91
2022-08-18T02:08:08.769Z,19.92
2022-08-18T02:09:08.809Z,19.89
2022-08-18T02:10:11.998Z,19.99
2022-08-18T02:11:08.677Z,19.88
2022-08-18T02:12:08.654Z,19.91
2022-08-18T02:13:08.622Z,19.96
2022-08-18T02:14:08.671Z,19.89
2022-08-18T02:15:08.671Z,19.76
2022-08-18T02:16:08.555Z,19.81
2022-08-18T02:17:08.511Z,19.74
2022-08-18T02:18:08.484Z,19.69
2022-08-18T02:19:08.469Z,19.76
2022-08-18T02:20:08.517Z,19.74
2022-08-18T02:21:10.206Z,19.74
2022-08-18T02:22:08.390Z,19.71
2022-08-18T02:23:08.342Z,19.64
2022-08-18T02:24:08.318Z,19.66
2022-08-18T02:25:08.340Z,19.66
2022-08-18T02:26:08.312Z,19.64
2022-08-18T02:27:08.249Z,19.66
2022-08-18T02:28:08.240Z,19.71
2022-08-18T02:29:08.222Z,19.69
2022-08-18T02:30:08.273Z,19.67
2022-08-18T02:31:08.125Z,19.56
2022-08-18T02:32:08.112Z,19.54
2022-08-18T02:33:08.754Z,19.55
2022-08-18T02:34:08.067Z,19.56
2022-08-18T02:35:08.326Z,19.51
2022-08-18T02:36:08.099Z,19.52
2022-08-18T02:37:10.875Z,19.41
2022-08-18T02:38:07.939Z,19.44
2022-08-18T02:39:07.911Z,19.44
2022-08-18T02:40:07.992Z,19.39
2022-08-18T02:41:07.887Z,19.44
2022-08-18T02:42:07.914Z,19.44
2022-08-18T02:43:07.827Z,19.40
2022-08-18T02:44:07.773Z,19.36
2022-08-18T02:45:07.744Z,19.36
2022-08-18T02:46:08.247Z,19.19
2022-08-18T02:47:07.686Z,19.24
2022-08-18T02:48:07.728Z,19.33
2022-08-18T02:49:07.685Z,19.31
2022-08-18T02:50:07.620Z,19.30
2022-08-18T02:51:07.603Z,19.29
2022-08-18T02:52:07.652Z,19.33
2022-08-18T02:53:07.569Z,19.30
2022-08-18T02:54:07.625Z,19.30
2022-08-18T02:55:07.501Z,19.22
2022-08-18T02:56:07.459Z,19.22
2022-08-18T02:57:07.424Z,19.21
2022-08-18T02:58:07.441Z,19.19
2022-08-18T02:59:07.385Z,19.19
2022-08-18T03:00:07.421Z,19.12
2022-08-18T03:01:07.412Z,19.19
2022-08-18T03:02:07.283Z,19.21
2022-08-18T03:03:07.257Z,19.19
2022-08-18T03:04:07.246Z,19.19
2022-08-18T03:05:07.254Z,19.15
2022-08-18T03:06:07.176Z,19.19
2022-08-18T03:07:07.161Z,19.27
2022-08-18T03:08:07.139Z,19.22
2022-08-18T03:09:07.891Z,19.26
2022-08-18T03:10:32.509Z,19.26
2022-08-18T03:11:07.151Z,19.16
2022-08-18T03:12:12.755Z,19.26
2022-08-18T03:13:07.021Z,19.24
2022-08-18T03:14:11.096Z,19.19
2022-08-18T03:15:06.937Z,19.29
2022-08-18T03:16:06.965Z,19.21
2022-08-18T03:17:06.945Z,19.27
2022-08-18T03:18:06.842Z,19.22
2022-08-18T03:19:06.818Z,19.24
2022-08-18T03:20:06.784Z,19.31
2022-08-18T03:21:07.731Z,19.30
2022-08-18T03:22:27.172Z,19.26
2022-08-18T03:23:09.790Z,19.22
2022-08-18T03:24:10.588Z,19.19
2022-08-18T03:25:06.689Z,19.21
2022-08-18T03:26:06.720Z,19.19
2022-08-18T03:27:06.599Z,19.21
2022-08-18T03:28:06.638Z,19.21
2022-08-18T03:29:06.586Z,19.16
2022-08-18T03:30:06.531Z,19.15
2022-08-18T03:31:06.636Z,19.11
2022-08-18T03:32:06.479Z,19.15
2022-08-18T03:33:06.954Z,19.15
2022-08-18T03:34:06.403Z,19.15
2022-08-18T03:35:06.406Z,19.11
2022-08-18T03:36:06.361Z,19.11
2022-08-18T03:37:06.334Z,19.09
2022-08-18T03:38:06.369Z,19.12
2022-08-18T03:39:06.395Z,19.09
2022-08-18T03:40:06.408Z,19.08
2022-08-18T03:41:06.233Z,19.09
2022-08-18T03:42:06.198Z,19.08
2022-08-18T03:43:06.155Z,19.08
2022-08-18T03:44:06.211Z,19.15
2022-08-18T03:45:17.862Z,19.11
2022-08-18T03:46:06.104Z,19.15
2022-08-18T03:47:06.078Z,19.11
2022-08-18T03:48:06.029Z,19.21
2022-08-18T03:49:06.042Z,19.21
2022-08-18T03:50:06.124Z,19.24
2022-08-18T03:51:05.949Z,19.21
2022-08-18T03:52:05.925Z,19.26
2022-08-18T03:53:05.910Z,19.30
2022-08-18T03:54:05.902Z,19.22
2022-08-18T03:55:05.848Z,19.29
2022-08-18T03:56:05.896Z,19.19
2022-08-18T03:57:05.768Z,19.19
2022-08-18T03:58:05.762Z,19.21
2022-08-18T03:59:05.729Z,19.16
2022-08-18T04:00:05.693Z,19.16
2022-08-18T04:01:05.859Z,19.18
2022-08-18T04:02:05.629Z,19.15
2022-08-18T04:03:05.610Z,19.12
2022-08-18T04:04:05.597Z,19.14
2022-08-18T04:05:05.590Z,19.14
2022-08-18T04:06:07.787Z,19.11
2022-08-18T04:07:05.570Z,19.14
2022-08-18T04:08:05.493Z,19.12
2022-08-18T04:09:05.459Z,19.18
2022-08-18T04:10:05.406Z,19.15
2022-08-18T04:11:05.381Z,19.19
2022-08-18T04:12:05.440Z,19.21
2022-08-18T04:13:05.510Z,19.24
2022-08-18T04:14:05.304Z,19.27
2022-08-18T04:15:05.278Z,19.22
2022-08-18T04:16:05.258Z,19.26
2022-08-18T04:17:05.230Z,19.33
2022-08-18T04:18:05.375Z,19.31
2022-08-18T04:19:05.225Z,19.30
2022-08-18T04:20:05.148Z,19.34
2022-08-18T04:21:05.123Z,19.41
2022-08-18T04:22:05.081Z,19.37
2022-08-18T04:23:05.128Z,19.41
2022-08-18T04:24:05.122Z,19.41
2022-08-18T04:25:05.017Z,19.41
2022-08-18T04:26:05.012Z,19.59
2022-08-18T04:27:04.996Z,19.55
2022-08-18T04:28:04.912Z,19.54
2022-08-18T04:29:04.962Z,19.52
2022-08-18T04:30:04.866Z,19.56
2022-08-18T04:31:04.854Z,19.69
2022-08-18T04:32:04.860Z,19.69
2022-08-18T04:33:04.820Z,19.67
2022-08-18T04:34:04.812Z,19.73
2022-08-18T04:35:04.780Z,19.73
2022-08-18T04:36:04.716Z,19.73
2022-08-18T04:37:04.676Z,19.82
2022-08-18T04:38:04.682Z,19.86
2022-08-18T04:39:04.695Z,19.86
2022-08-18T04:40:04.758Z,19.94
2022-08-18T04:41:04.576Z,19.91
2022-08-18T04:42:04.583Z,20.02
2022-08-18T04:43:04.555Z,20.10
2022-08-18T04:44:04.528Z,20.06
2022-08-18T04:45:04.559Z,20.13
2022-08-18T04:46:04.450Z,20.10
2022-08-18T04:47:04.407Z,20.09
2022-08-18T04:48:04.386Z,20.18
2022-08-18T04:49:04.399Z,20.13
2022-08-18T04:50:04.378Z,20.28
2022-08-18T04:51:04.446Z,20.29
2022-08-18T04:52:38.308Z,20.40
2022-08-18T04:53:04.255Z,20.29
2022-08-18T04:54:04.215Z,20.40
2022-08-18T04:55:04.319Z,20.44
2022-08-18T04:56:04.163Z,20.41
2022-08-18T04:57:04.206Z,20.51
2022-08-18T04:58:04.139Z,20.50
2022-08-18T04:59:04.103Z,20.58
2022-08-18T05:00:04.113Z,20.69
2022-08-18T05:01:04.173Z,20.62
2022-08-18T05:02:04.019Z,20.62
2022-08-18T05:03:03.997Z,20.63
2022-08-18T05:04:03.947Z,20.67
2022-08-18T05:05:04.110Z,20.72
2022-08-18T05:06:03.896Z,20.70
2022-08-18T05:07:03.929Z,20.74
2022-08-18T05:08:03.841Z,20.87
2022-08-18T05:09:03.817Z,20.87
2022-08-18T05:10:03.788Z,20.88
2022-08-18T05:11:04.400Z,21.00
2022-08-18T05:12:03.801Z,21.05
2022-08-18T05:13:03.795Z,21.12
2022-08-18T05:14:03.678Z,21.17
2022-08-18T05:15:03.661Z,21.24
2022-08-18T05:16:10.953Z,21.29
2022-08-18T05:17:03.600Z,21.42
2022-08-18T05:18:03.659Z,21.48
2022-08-18T05:19:03.551Z,21.55
2022-08-18T05:20:03.571Z,21.57
2022-08-18T05:21:03.504Z,21.54
2022-08-18T05:22:03.471Z,21.57
2022-08-18T05:23:03.447Z,21.67
2022-08-18T05:24:03.546Z,21.75
2022-08-18T05:25:03.392Z,21.75
2022-08-18T05:26:03.366Z,21.88
2022-08-18T05:27:03.341Z,21.76
2022-08-18T05:28:03.314Z,21.89
2022-08-18T05:29:18.057Z,21.98
2022-08-18T05:30:03.471Z,21.96
2022-08-18T05:31:03.243Z,22.04
2022-08-18T05:32:03.210Z,22.10
2022-08-18T05:33:03.203Z,22.10
2022-08-18T05:34:03.172Z,22.15
2022-08-18T05:35:03.800Z,22.25
2022-08-18T05:36:03.182Z,22.28
2022-08-18T05:37:03.089Z,22.36
2022-08-18T05:38:03.058Z,22.47
2022-08-18T05:39:03.804Z,22.50
2022-08-18T05:40:07.451Z,22.62
2022-08-18T05:41:02.983Z,22.73
2022-08-18T05:42:03.074Z,22.75
2022-08-18T05:43:02.939Z,22.78
2022-08-18T05:44:03.887Z,22.98
2022-08-18T05:45:02.891Z,22.98
2022-08-18T05:46:02.866Z,22.90
2022-08-18T05:47:02.836Z,22.94
2022-08-18T05:48:02.988Z,23.09
2022-08-18T05:49:02.784Z,23.03
2022-08-18T05:50:02.828Z,23.13
2022-08-18T05:51:02.753Z,23.08
2022-08-18T05:52:02.709Z,23.13
2022-08-18T05:53:02.700Z,23.20
2022-08-18T05:54:02.741Z,23.27
2022-08-18T05:55:02.634Z,23.27
2022-08-18T05:56:02.614Z,23.34
2022-08-18T05:57:02.657Z,23.47
2022-08-18T05:58:02.562Z,23.63
2022-08-18T05:59:02.540Z,23.69
2022-08-18T06:00:03.560Z,23.69
2022-08-18T06:01:02.489Z,23.73
2022-08-18T06:02:06.310Z,23.71
2022-08-18T06:03:02.505Z,23.65
2022-08-18T06:04:02.563Z,23.68
2022-08-18T06:05:02.397Z,23.69
2022-08-18T06:06:02.489Z,23.69
2022-08-18T06:07:02.354Z,23.83
2022-08-18T06:08:02.337Z,23.81
2022-08-18T06:09:02.355Z,23.77
2022-08-18T06:10:02.277Z,23.76
2022-08-18T06:11:02.273Z,23.83
2022-08-18T06:12:02.308Z,23.84
2022-08-18T06:13:02.208Z,23.81
2022-08-18T06:14:02.173Z,23.84
2022-08-18T06:15:05.825Z,23.87
2022-08-18T06:16:02.124Z,23.74
2022-08-18T06:17:02.099Z,23.78
2022-08-18T06:18:02.128Z,23.88
2022-08-18T06:19:02.053Z,23.83
2022-08-18T06:20:02.032Z,23.83
2022-08-18T06:21:05.815Z,23.77
2022-08-18T06:22:01.985Z,23.86
2022-08-18T06:23:02.061Z,23.96
2022-08-18T06:24:01.932Z,23.93
2022-08-18T06:25:01.964Z,24.02
2022-08-18T06:26:01.882Z,24.14
2022-08-18T06:27:01.861Z,24.20
2022-08-18T06:28:01.835Z,24.29
2022-08-18T06:29:02.141Z,24.35
2022-08-18T06:30:01.817Z,24.47
2022-08-18T06:31:01.765Z,24.55
2022-08-18T06:32:01.737Z,24.47
2022-08-18T06:33:01.717Z,24.48
2022-08-18T06:34:04.323Z,24.43
2022-08-18T06:35:01.750Z,24.43
2022-08-18T06:36:01.645Z,24.47
2022-08-18T06:37:01.618Z,24.48
2022-08-18T06:38:01.614Z,24.61
2022-08-18T06:39:01.571Z,24.68
2022-08-18T06:40:02.459Z,24.70
2022-08-18T06:41:01.602Z,24.73
2022-08-18T06:42:01.507Z,24.66
2022-08-18T06:43:02.265Z,24.70
2022-08-18T06:44:01.463Z,24.76
2022-08-18T06:45:01.430Z,24.73
2022-08-18T06:46:01.408Z,24.77
2022-08-18T06:47:01.468Z,24.80
2022-08-18T06:48:01.362Z,24.78
2022-08-18T06:49:01.339Z,24.76
2022-08-18T06:50:01.320Z,24.76
2022-08-18T06:51:01.292Z,24.74
2022-08-18T06:52:01.265Z,24.86
2022-08-18T06:53:01.292Z,25.03
2022-08-18T06:54:01.222Z,25.06
2022-08-18T06:55:01.205Z,25.21
2022-08-18T06:56:01.175Z,25.21
2022-08-18T06:57:01.153Z,25.32
2022-08-18T06:58:01.190Z,25.43
2022-08-18T06:59:01.159Z,25.50
2022-08-18T07:00:01.082Z,25.60
2022-08-18T07:01:01.126Z,25.62
2022-08-18T07:02:01.040Z,25.73
2022-08-18T07:03:01.030Z,25.80
2022-08-18T07:04:01.048Z,25.78
2022-08-18T07:05:00.962Z,25.84
2022-08-18T07:06:00.944Z,25.93
2022-08-18T07:07:00.918Z,25.93
2022-08-18T07:08:00.914Z,26.09
2022-08-18T07:09:00.920Z,26.07
2022-08-18T07:10:00.857Z,26.15
2022-08-18T07:11:00.831Z,26.22
2022-08-18T07:12:00.812Z,26.34
2022-08-18T07:13:00.783Z,26.34
2022-08-18T07:14:16.195Z,26.45
2022-08-18T07:15:01.454Z,26.52
2022-08-18T07:16:00.963Z,26.48
2022-08-18T07:17:00.697Z,26.56
2022-08-18T07:18:00.674Z,26.56
2022-08-18T07:19:00.655Z,26.56
2022-08-18T07:20:00.677Z,26.52
2022-08-18T07:21:00.605Z,26.63
2022-08-18T07:22:00.580Z,26.66
2022-08-18T07:23:00.582Z,26.65
2022-08-18T07:24:23.242Z,26.78
2022-08-18T07:25:05.069Z,26.89
2022-08-18T07:26:00.489Z,26.80
2022-08-18T07:27:00.471Z,26.75
2022-08-18T07:28:00.447Z,26.80
2022-08-18T07:29:00.424Z,26.92
2022-08-18T07:30:00.412Z,26.83
2022-08-18T07:31:16.011Z,26.89
2022-08-18T07:32:00.353Z,26.83
2022-08-18T07:33:00.339Z,27.02
2022-08-18T07:34:00.318Z,27.03
2022-08-18T07:35:00.327Z,27.17
2022-08-18T07:36:00.277Z,27.22
2022-08-18T07:37:00.905Z,27.29
2022-08-18T07:38:00.583Z,27.35
2022-08-18T07:39:00.206Z,27.47
2022-08-18T07:40:00.294Z,27.40
2022-08-18T07:41:00.214Z,27.51
2022-08-18T07:42:00.151Z,27.58
2022-08-18T07:43:01.519Z,27.64
2022-08-18T07:44:00.104Z,27.70
2022-08-18T07:45:00.080Z,27.74
2022-08-18T07:46:00.060Z,27.77
2022-08-18T07:47:00.105Z,27.86
2022-08-18T07:48:10.975Z,27.78
2022-08-18T07:49:00.037Z,27.82
2022-08-18T07:50:23.124Z,27.90
2022-08-18T07:51:02.231Z,28.00
2022-08-18T07:51:59.927Z,28.04
2022-08-18T07:52:59.901Z,27.98
2022-08-18T07:54:00.181Z,28.10
2022-08-18T07:54:59.864Z,28.08
2022-08-18T07:55:59.841Z,28.14
2022-08-18T07:56:59.823Z,28.26
2022-08-18T07:57:59.801Z,28.32
2022-08-18T07:58:59.788Z,28.32
2022-08-18T07:59:59.931Z,28.32
2022-08-18T08:01:00.739Z,28.44
2022-08-18T08:01:59.768Z,28.45
2022-08-18T08:02:59.686Z,28.47
2022-08-18T08:03:59.673Z,28.51
2022-08-18T08:04:59.673Z,28.57
2022-08-18T08:05:59.680Z,28.57
2022-08-18T08:07:22.825Z,28.51
2022-08-18T08:07:59.597Z,28.45
2022-08-18T08:08:59.563Z,28.54
2022-08-18T08:09:59.582Z,28.54
2022-08-18T08:10:59.576Z,28.57
2022-08-18T08:11:59.505Z,28.72
2022-08-18T08:13:08.699Z,28.70
2022-08-18T08:13:59.471Z,28.70
2022-08-18T08:14:59.465Z,28.72
2022-08-18T08:15:59.497Z,28.69
2022-08-18T08:16:59.406Z,28.59
2022-08-18T08:17:59.385Z,28.69
2022-08-18T08:18:59.360Z,28.69
2022-08-18T08:20:00.808Z,28.54
2022-08-18T08:20:59.372Z,28.69
2022-08-18T08:21:59.299Z,28.67
2022-08-18T08:22:59.283Z,28.81
2022-08-18T08:23:59.258Z,28.84
2022-08-18T08:24:59.238Z,28.81
2022-08-18T08:25:59.363Z,28.78
2022-08-18T08:26:59.208Z,28.79
2022-08-18T08:27:59.187Z,28.74
2022-08-18T08:28:59.158Z,28.81
2022-08-18T08:29:59.870Z,28.70
2022-08-18T08:31:18.961Z,28.66
2022-08-18T08:31:59.558Z,28.76
2022-08-18T08:32:59.074Z,28.79
2022-08-18T08:34:02.737Z,28.69
2022-08-18T08:34:59.871Z,28.66
2022-08-18T08:35:59.014Z,28.35
2022-08-18T08:36:59.535Z,28.12
2022-08-18T08:38:02.302Z,28.00
2022-08-18T08:38:58.950Z,28.01
2022-08-18T08:39:59.008Z,27.90
2022-08-18T08:40:58.913Z,27.98
2022-08-18T08:42:30.263Z,28.11
2022-08-18T08:42:58.894Z,28.20
2022-08-18T08:43:58.847Z,28.26
2022-08-18T08:44:59.772Z,28.47
2022-08-18T08:45:58.838Z,28.63
2022-08-18T08:46:58.885Z,28.66
2022-08-18T08:48:08.163Z,28.89
2022-08-18T08:48:58.742Z,29.08
2022-08-18T08:50:00.989Z,29.02
2022-08-18T08:50:58.704Z,28.79
2022-08-18T08:51:58.802Z,28.78
2022-08-18T08:52:58.665Z,28.75
2022-08-18T08:53:58.659Z,28.94
2022-08-18T08:54:58.673Z,28.89
2022-08-18T08:56:02.207Z,28.85
2022-08-18T08:56:58.609Z,28.89
2022-08-18T08:57:59.534Z,28.82
2022-08-18T08:58:58.596Z,28.70
2022-08-18T08:59:58.524Z,28.84
2022-08-18T09:00:58.500Z,28.91
2022-08-18T09:01:58.531Z,29.07
2022-08-18T09:02:58.590Z,29.08
2022-08-18T09:03:58.437Z,29.12
2022-08-18T09:05:07.950Z,29.17
2022-08-18T09:05:58.473Z,29.05
2022-08-18T09:06:58.406Z,29.05
2022-08-18T09:07:58.411Z,29.08
2022-08-18T09:08:58.337Z,29.05
2022-08-18T09:09:58.320Z,29.16
2022-08-18T09:10:58.300Z,29.26
2022-08-18T09:11:58.277Z,29.50
2022-08-18T09:12:58.303Z,29.47
2022-08-18T09:13:58.243Z,29.54
2022-08-18T09:14:58.233Z,29.45
2022-08-18T09:15:58.224Z,29.51
2022-08-18T09:16:58.197Z,29.38
2022-08-18T09:17:58.274Z,29.34
2022-08-18T09:18:58.139Z,29.47
2022-08-18T09:19:58.128Z,29.59
2022-08-18T09:20:58.096Z,29.49
2022-08-18T09:21:58.072Z,29.57
2022-08-18T09:22:58.056Z,29.53
2022-08-18T09:23:58.096Z,29.61
2022-08-18T09:24:58.018Z,29.53
2022-08-18T09:25:58.004Z,29.34
2022-08-18T09:26:57.989Z,29.20
2022-08-18T09:28:12.460Z,29.19
2022-08-18T09:28:58.012Z,29.27
2022-08-18T09:29:57.927Z,29.34
2022-08-18T09:30:57.899Z,29.35
2022-08-18T09:31:57.899Z,29.38
2022-08-18T09:33:01.404Z,29.53
2022-08-18T09:33:57.893Z,29.63
2022-08-18T09:34:57.830Z,29.75
2022-08-18T09:35:57.895Z,29.93
2022-08-18T09:36:57.776Z,29.98
2022-08-18T09:37:57.751Z,30.12
2022-08-18T09:38:57.864Z,30.12
2022-08-18T09:39:57.829Z,30.09
2022-08-18T09:41:03.030Z,30.23
2022-08-18T09:41:57.671Z,30.10
2022-08-18T09:42:57.654Z,30.19
2022-08-18T09:43:57.633Z,30.35
2022-08-18T09:44:57.665Z,30.46
2022-08-18T09:45:57.702Z,30.40
2022-08-18T09:46:57.615Z,30.44
2022-08-18T09:47:57.580Z,30.27
2022-08-18T09:48:57.548Z,30.34
2022-08-18T09:49:57.576Z,30.39
2022-08-18T09:50:57.501Z,30.50
2022-08-18T09:51:57.592Z,30.65
2022-08-18T09:52:57.750Z,30.59
2022-08-18T09:53:57.447Z,30.65
2022-08-18T09:54:57.528Z,30.59
2022-08-18T09:56:01.403Z,30.65
2022-08-18T09:56:58.021Z,30.66
2022-08-18T09:57:57.366Z,30.54
2022-08-18T09:58:57.349Z,30.66
2022-08-18T09:59:57.471Z,30.61
2022-08-18T10:00:57.325Z,30.44
2022-08-18T10:01:57.285Z,30.30
2022-08-18T10:02:57.847Z,30.37
2022-08-18T10:03:57.243Z,30.34
2022-08-18T10:04:57.231Z,30.51
2022-08-18T10:05:57.905Z,30.44
2022-08-18T10:06:57.261Z,30.44
2022-08-18T10:07:57.169Z,30.37
2022-08-18T10:08:57.142Z,30.55
2022-08-18T10:09:57.136Z,30.73
2022-08-18T10:11:01.347Z,30.68
2022-08-18T10:12:01.194Z,30.63
2022-08-18T10:12:57.063Z,30.57
2022-08-18T10:13:57.059Z,30.63
2022-08-18T10:14:57.025Z,30.65
2022-08-18T10:15:58.652Z,30.68
2022-08-18T10:17:21.834Z,30.78
2022-08-18T10:17:56.999Z,30.84
2022-08-18T10:18:56.962Z,30.91
2022-08-18T10:19:56.930Z,30.90
2022-08-18T10:20:56.915Z,30.99
2022-08-18T10:21:58.198Z,30.94
2022-08-18T10:22:57.458Z,30.94
2022-08-18T10:24:56.835Z,30.90
2022-08-18T10:26:00.331Z,30.96
2022-08-18T10:26:56.797Z,30.92
2022-08-18T10:27:58.436Z,31.06
2022-08-18T10:28:57.218Z,31.09
2022-08-18T10:29:57.441Z,30.91
2022-08-18T10:31:57.554Z,30.94
2022-08-18T10:32:56.789Z,30.85
2022-08-18T10:33:59.355Z,30.77
2022-08-18T10:34:56.650Z,30.73
2022-08-18T10:35:56.614Z,30.66
2022-08-18T10:37:56.573Z,30.88
2022-08-18T10:38:56.574Z,31.03
2022-08-18T10:39:57.509Z,31.05
2022-08-18T10:40:56.514Z,31.15
2022-08-18T10:41:56.500Z,31.18
2022-08-18T10:42:56.602Z,31.17
2022-08-18T10:44:56.468Z,31.06
2022-08-18T10:46:56.414Z,31.17
2022-08-18T10:47:56.397Z,31.29
2022-08-18T10:48:56.358Z,31.44
2022-08-18T10:49:57.038Z,31.44
2022-08-18T10:50:56.318Z,31.14
2022-08-18T10:51:57.948Z,31.17
2022-08-18T10:53:24.153Z,31.15
2022-08-18T10:53:56.304Z,31.07
2022-08-18T10:54:56.242Z,31.06
2022-08-18T10:55:56.254Z,31.06
2022-08-18T10:56:56.204Z,31.18
2022-08-18T10:57:56.326Z,31.18
2022-08-18T10:58:56.167Z,31.15
2022-08-18T10:59:56.143Z,31.17
2022-08-18T11:00:56.126Z,31.46
2022-08-18T11:01:56.098Z,31.47
2022-08-18T11:03:56.676Z,31.90
2022-08-18T11:04:58.696Z,32.12
2022-08-18T11:05:56.024Z,32.14
2022-08-18T11:06:56.007Z,32.23
2022-08-18T11:07:56.688Z,32.46
2022-08-18T11:08:57.451Z,32.55
2022-08-18T11:10:12.961Z,32.36
2022-08-18T11:11:33.534Z,32.36
2022-08-18T11:11:59.419Z,32.53
2022-08-18T11:12:56.390Z,32.80
2022-08-18T11:13:55.871Z,32.85
2022-08-18T11:14:58.944Z,33.08
2022-08-18T11:15:56.085Z,33.30
2022-08-18T11:16:55.828Z,33.49
2022-08-18T11:17:55.796Z,33.46
2022-08-18T11:18:56.450Z,33.62
2022-08-18T11:19:55.783Z,33.73
2022-08-18T11:20:58.943Z,33.69
2022-08-18T11:21:55.732Z,33.84
2022-08-18T11:22:56.412Z,33.79
2022-08-18T11:23:55.719Z,33.74
2022-08-18T11:24:55.711Z,33.77
2022-08-18T11:25:55.703Z,33.55
2022-08-18T11:26:56.218Z,33.22
2022-08-18T11:27:55.669Z,32.92
2022-08-18T11:28:55.617Z,32.71
2022-08-18T11:29:55.607Z,32.59
2022-08-18T11:30:55.574Z,32.63
2022-08-18T11:31:55.558Z,32.74
2022-08-18T11:32:56.200Z,32.68
2022-08-18T11:33:55.557Z,32.77
2022-08-18T11:34:55.506Z,32.83
2022-08-18T11:35:55.521Z,32.96
2022-08-18T11:36:55.484Z,32.92
2022-08-18T11:37:55.443Z,32.70
2022-08-18T11:38:55.765Z,32.53
2022-08-18T11:39:55.458Z,32.80
2022-08-18T11:41:12.692Z,32.59
2022-08-18T11:41:55.434Z,32.34
2022-08-18T11:42:55.388Z,32.21
2022-08-18T11:43:55.338Z,32.46
2022-08-18T11:44:57.314Z,32.45
2022-08-18T11:45:55.313Z,32.51
2022-08-18T11:46:55.285Z,32.52
2022-08-18T11:47:55.279Z,32.51
2022-08-18T11:48:55.260Z,32.52
2022-08-18T11:49:55.225Z,32.41
2022-08-18T11:50:56.842Z,32.53
2022-08-18T11:51:55.189Z,32.43
2022-08-18T11:52:55.289Z,32.29
2022-08-18T11:53:58.735Z,32.43
2022-08-18T11:54:55.138Z,32.51
2022-08-18T11:55:55.121Z,32.59
2022-08-18T11:56:57.649Z,32.60
2022-08-18T11:57:59.249Z,32.73
2022-08-18T11:58:55.063Z,32.77
2022-08-18T12:00:00.297Z,32.80
2022-08-18T12:00:55.033Z,32.92
2022-08-18T12:01:55.011Z,32.93
2022-08-18T12:02:57.475Z,33.00
2022-08-18T12:03:54.974Z,32.89
2022-08-18T12:04:54.994Z,32.64
2022-08-18T12:05:56.362Z,32.48
2022-08-18T12:06:54.917Z,32.46
2022-08-18T12:07:57.597Z,32.41
2022-08-18T12:08:57.233Z,32.43
2022-08-18T12:10:16.462Z,32.55
2022-08-18T12:10:54.846Z,32.58
2022-08-18T12:11:54.827Z,32.74
2022-08-18T12:12:55.676Z,32.78
2022-08-18T12:13:54.798Z,32.89
2022-08-18T12:16:29.423Z,33.04
2022-08-18T12:17:26.854Z,33.14
2022-08-18T12:18:29.803Z,33.04
2022-08-18T12:19:27.199Z,32.97
2022-08-18T12:20:26.784Z,33.11
2022-08-18T12:21:27.468Z,33.24
2022-08-18T12:22:28.729Z,33.11
2022-08-18T12:23:27.366Z,33.08
2022-08-18T12:24:29.290Z,33.07
2022-08-18T12:25:26.690Z,32.93
2022-08-18T12:26:37.957Z,32.74
2022-08-18T12:27:26.744Z,32.74
2022-08-18T12:28:28.764Z,32.78
2022-08-18T12:29:36.623Z,32.93
2022-08-18T12:30:26.610Z,33.12
2022-08-18T12:31:28.874Z,33.27
2022-08-18T12:32:46.426Z,33.52
2022-08-18T12:33:34.304Z,33.62
2022-08-18T12:34:34.170Z,33.86
2022-08-18T12:35:26.513Z,33.99
2022-08-18T12:36:29.084Z,33.80
2022-08-18T12:38:26.466Z,33.45
2022-08-18T12:39:26.445Z,33.39
2022-08-18T12:40:27.656Z,33.46
2022-08-18T12:41:26.428Z,33.49
2022-08-18T12:42:26.405Z,33.37
2022-08-18T12:43:26.375Z,33.27
2022-08-18T12:44:27.319Z,33.27
2022-08-18T12:45:27.004Z,33.24
2022-08-18T12:46:27.906Z,33.28
2022-08-18T12:47:26.302Z,33.34
2022-08-18T12:48:26.290Z,33.42
2022-08-18T12:49:26.542Z,33.40
2022-08-18T12:50:31.401Z,33.47
2022-08-18T12:51:30.408Z,33.62
2022-08-18T12:52:29.184Z,33.68
2022-08-18T12:53:29.737Z,33.61
2022-08-18T12:54:26.183Z,33.49
2022-08-18T12:55:26.161Z,33.49
2022-08-18T12:56:26.145Z,33.53
2022-08-18T12:57:52.190Z,33.50
2022-08-18T12:58:33.087Z,33.53
2022-08-18T12:59:26.100Z,33.50
2022-08-18T13:00:28.909Z,33.58